BAW7D EGLL-KLAX
Flight info
| Callsign | BAW7D |
|---|---|
| Flight time | N/A |
| Altitude | 34000 |
| Route | CPT L9 DIDZA N14 OKTAD DCT MEDOG DCT VATRY DCT REVNU DCT SUNOT/M084F340 DCT 58N020W 59N030W 60N040W 60N050W/M084F360 DCT RADUN N938B PEPKI/N0485F360 N938B LOPVI DCT DUMRU DCT KEMSA/N0498F380 DCT 54N090W DCT KOBID DCT OSMEE Q945 DIK DCT RECAP DCT CZI DCT OCS J107 BLD DCT HAKMN ANJLL4 |
| Aircraft | A388/J-SADE2E3FGHIJ3J4J5M1RWXY/LB1D1 |
Departure
| Time | N/A |
|---|---|
| Airport | London Heathrow Airport (EGLL) |
Arrival
| Time | 2026-05-04 19:57 |
|---|---|
| Airport | Los Angeles International Airport (KLAX) |
| Time | Latitude | Longitude | Altitude | Speed | Heading |
|---|---|---|---|---|---|
| 2026-05-04 18:55 | 37.62110 | -113.60769 | 37799 ft | 387 kts | 219° |
| 2026-05-04 18:55 | 37.59829 | -113.62574 | 37806 ft | 387 kts | 219° |
| 2026-05-04 18:56 | 37.55289 | -113.66163 | 37871 ft | 383 kts | 219° |
| 2026-05-04 18:56 | 37.50781 | -113.69723 | 37858 ft | 381 kts | 219° |
| 2026-05-04 18:57 | 37.46295 | -113.73264 | 37837 ft | 379 kts | 219° |
| 2026-05-04 18:57 | 37.41818 | -113.76789 | 37780 ft | 380 kts | 219° |
| 2026-05-04 18:58 | 37.37346 | -113.80306 | 37798 ft | 379 kts | 219° |
| 2026-05-04 18:58 | 37.32906 | -113.83796 | 37788 ft | 379 kts | 218° |
| 2026-05-04 18:59 | 37.28437 | -113.87296 | 37828 ft | 376 kts | 219° |
| 2026-05-04 18:59 | 37.24027 | -113.90750 | 37818 ft | 375 kts | 219° |
| 2026-05-04 19:00 | 37.19603 | -113.94212 | 37812 ft | 374 kts | 219° |
| 2026-05-04 19:00 | 37.15186 | -113.97662 | 37804 ft | 374 kts | 219° |
| 2026-05-04 19:01 | 37.10798 | -114.01084 | 37797 ft | 373 kts | 219° |
| 2026-05-04 19:01 | 37.06407 | -114.04503 | 37794 ft | 373 kts | 219° |
| 2026-05-04 19:02 | 37.02006 | -114.07925 | 37803 ft | 371 kts | 219° |
| 2026-05-04 19:02 | 36.97614 | -114.11336 | 37797 ft | 370 kts | 219° |
| 2026-05-04 19:03 | 36.93259 | -114.14715 | 37786 ft | 370 kts | 218° |
| 2026-05-04 19:03 | 36.88876 | -114.18109 | 37782 ft | 370 kts | 218° |
| 2026-05-04 19:04 | 36.84504 | -114.21491 | 37786 ft | 369 kts | 219° |
| 2026-05-04 19:04 | 36.80134 | -114.24866 | 37778 ft | 369 kts | 219° |
| 2026-05-04 19:05 | 36.75766 | -114.28237 | 37759 ft | 369 kts | 218° |
| 2026-05-04 19:05 | 36.71386 | -114.31582 | 37757 ft | 369 kts | 218° |
| 2026-05-04 19:06 | 36.66997 | -114.34915 | 37762 ft | 369 kts | 218° |
| 2026-05-04 19:06 | 36.62624 | -114.38236 | 37765 ft | 370 kts | 218° |
| 2026-05-04 19:07 | 36.58225 | -114.41575 | 37779 ft | 370 kts | 218° |
| 2026-05-04 19:07 | 36.53829 | -114.44906 | 37788 ft | 370 kts | 218° |
| 2026-05-04 19:08 | 36.49443 | -114.48226 | 37737 ft | 370 kts | 218° |
| 2026-05-04 19:08 | 36.45027 | -114.51568 | 37750 ft | 372 kts | 218° |
| 2026-05-04 19:09 | 36.40613 | -114.54967 | 37765 ft | 374 kts | 218° |
| 2026-05-04 19:09 | 36.36179 | -114.58388 | 37780 ft | 376 kts | 218° |
| 2026-05-04 19:10 | 36.31721 | -114.61813 | 37797 ft | 377 kts | 218° |
| 2026-05-04 19:10 | 36.27277 | -114.65221 | 37806 ft | 378 kts | 218° |
| 2026-05-04 19:11 | 36.23527 | -114.68091 | 37772 ft | 378 kts | 219° |
| 2026-05-04 19:11 | 36.18312 | -114.72083 | 37807 ft | 379 kts | 219° |
| 2026-05-04 19:12 | 36.12316 | -114.76661 | 37868 ft | 381 kts | 219° |
| 2026-05-04 19:13 | 36.07792 | -114.80110 | 37894 ft | 381 kts | 219° |
| 2026-05-04 19:13 | 36.02576 | -114.84074 | 37909 ft | 380 kts | 218° |
| 2026-05-04 19:14 | 35.98638 | -114.86624 | 37890 ft | 385 kts | 213° |
| 2026-05-04 19:14 | 35.93626 | -114.89031 | 37882 ft | 391 kts | 210° |
| 2026-05-04 19:15 | 35.88484 | -114.91299 | 37879 ft | 391 kts | 210° |
| 2026-05-04 19:15 | 35.82513 | -114.93952 | 37853 ft | 392 kts | 210° |
| 2026-05-04 19:16 | 35.78220 | -114.95857 | 37854 ft | 392 kts | 210° |
| 2026-05-04 19:16 | 35.73085 | -114.98133 | 37870 ft | 393 kts | 210° |
| 2026-05-04 19:17 | 35.67956 | -115.00401 | 37864 ft | 392 kts | 210° |
| 2026-05-04 19:17 | 35.62819 | -115.02671 | 37903 ft | 392 kts | 210° |
| 2026-05-04 19:18 | 35.57715 | -115.04923 | 37901 ft | 391 kts | 210° |
| 2026-05-04 19:18 | 35.52818 | -115.07664 | 37897 ft | 380 kts | 218° |
| 2026-05-04 19:19 | 35.48529 | -115.11314 | 37899 ft | 372 kts | 225° |
| 2026-05-04 19:19 | 35.44839 | -115.15723 | 37877 ft | 368 kts | 231° |
| 2026-05-04 19:20 | 35.41353 | -115.20310 | 37888 ft | 369 kts | 231° |
| 2026-05-04 19:20 | 35.37820 | -115.24914 | 37893 ft | 369 kts | 231° |
| 2026-05-04 19:21 | 35.34297 | -115.29500 | 37922 ft | 370 kts | 231° |
| 2026-05-04 19:21 | 35.30772 | -115.34085 | 37940 ft | 371 kts | 230° |
| 2026-05-04 19:22 | 35.27226 | -115.38689 | 37946 ft | 370 kts | 230° |
| 2026-05-04 19:22 | 35.23685 | -115.43282 | 37961 ft | 371 kts | 230° |
| 2026-05-04 19:23 | 35.20143 | -115.47867 | 37958 ft | 371 kts | 230° |
| 2026-05-04 19:23 | 35.16597 | -115.52454 | 37967 ft | 371 kts | 230° |
| 2026-05-04 19:24 | 35.13067 | -115.57012 | 37968 ft | 371 kts | 230° |
| 2026-05-04 19:24 | 35.09510 | -115.61584 | 37952 ft | 371 kts | 230° |
| 2026-05-04 19:25 | 35.05935 | -115.66150 | 37959 ft | 372 kts | 230° |
| 2026-05-04 19:25 | 35.02356 | -115.70719 | 37956 ft | 372 kts | 230° |
| 2026-05-04 19:26 | 34.98775 | -115.75287 | 37953 ft | 372 kts | 230° |
| 2026-05-04 19:26 | 34.95212 | -115.79826 | 37958 ft | 372 kts | 230° |
| 2026-05-04 19:27 | 34.91622 | -115.84393 | 37950 ft | 372 kts | 230° |
| 2026-05-04 19:27 | 34.88033 | -115.88954 | 37944 ft | 372 kts | 230° |
| 2026-05-04 19:28 | 34.84445 | -115.93506 | 37939 ft | 372 kts | 230° |
| 2026-05-04 19:28 | 34.80862 | -115.98048 | 37947 ft | 372 kts | 229° |
| 2026-05-04 19:29 | 34.77276 | -116.02586 | 37918 ft | 372 kts | 229° |
| 2026-05-04 19:29 | 34.73700 | -116.07136 | 37920 ft | 372 kts | 229° |
| 2026-05-04 19:30 | 34.70148 | -116.11669 | 37942 ft | 372 kts | 229° |
| 2026-05-04 19:30 | 34.66574 | -116.16217 | 37917 ft | 373 kts | 229° |
| 2026-05-04 19:31 | 34.62989 | -116.20771 | 37919 ft | 372 kts | 229° |
| 2026-05-04 19:31 | 34.61201 | -116.23039 | 37737 ft | 369 kts | 229° |
| 2026-05-04 19:31 | 34.59457 | -116.25248 | 37473 ft | 364 kts | 229° |
| 2026-05-04 19:31 | 34.57710 | -116.27463 | 37048 ft | 362 kts | 229° |
| 2026-05-04 19:32 | 34.55958 | -116.29684 | 36064 ft | 368 kts | 228° |
| 2026-05-04 19:32 | 34.54181 | -116.31938 | 35270 ft | 370 kts | 227° |
| 2026-05-04 19:32 | 34.52413 | -116.34175 | 34666 ft | 366 kts | 227° |
| 2026-05-04 19:32 | 34.50661 | -116.36388 | 34109 ft | 361 kts | 227° |
| 2026-05-04 19:33 | 34.48932 | -116.38569 | 33473 ft | 357 kts | 227° |
| 2026-05-04 19:33 | 34.47226 | -116.40721 | 32888 ft | 351 kts | 227° |
| 2026-05-04 19:33 | 34.45541 | -116.42845 | 32353 ft | 346 kts | 227° |
| 2026-05-04 19:33 | 34.43904 | -116.44945 | 31809 ft | 340 kts | 228° |
| 2026-05-04 19:34 | 34.42419 | -116.47150 | 31269 ft | 336 kts | 232° |
| 2026-05-04 19:34 | 34.41101 | -116.49475 | 30729 ft | 334 kts | 235° |
| 2026-05-04 19:34 | 34.39945 | -116.51906 | 30204 ft | 332 kts | 238° |
| 2026-05-04 19:34 | 34.38923 | -116.54407 | 29601 ft | 329 kts | 239° |
| 2026-05-04 19:35 | 34.37961 | -116.56767 | 29116 ft | 324 kts | 239° |
| 2026-05-04 19:35 | 34.36963 | -116.59195 | 28590 ft | 320 kts | 239° |
| 2026-05-04 19:35 | 34.35977 | -116.61586 | 28074 ft | 316 kts | 239° |
| 2026-05-04 19:35 | 34.35001 | -116.63949 | 27575 ft | 312 kts | 240° |
| 2026-05-04 19:36 | 34.34034 | -116.66286 | 27121 ft | 308 kts | 240° |
| 2026-05-04 19:36 | 34.33080 | -116.68593 | 26882 ft | 319 kts | 240° |
| 2026-05-04 19:36 | 34.32053 | -116.71113 | 26482 ft | 340 kts | 241° |
| 2026-05-04 19:36 | 34.31021 | -116.73687 | 26262 ft | 344 kts | 242° |
| 2026-05-04 19:37 | 34.30003 | -116.76248 | 26097 ft | 329 kts | 241° |
| 2026-05-04 19:37 | 34.29034 | -116.78686 | 25582 ft | 320 kts | 242° |
| 2026-05-04 19:37 | 34.28055 | -116.81123 | 24580 ft | 324 kts | 242° |
| 2026-05-04 19:37 | 34.27060 | -116.83586 | 23935 ft | 325 kts | 242° |
| 2026-05-04 19:38 | 34.26072 | -116.86031 | 23444 ft | 322 kts | 242° |
| 2026-05-04 19:38 | 34.25099 | -116.88443 | 22951 ft | 317 kts | 242° |
| 2026-05-04 19:38 | 34.24135 | -116.90832 | 22456 ft | 313 kts | 243° |
| 2026-05-04 19:38 | 34.23197 | -116.93151 | 21981 ft | 309 kts | 243° |
| 2026-05-04 19:39 | 34.22260 | -116.95467 | 21523 ft | 305 kts | 243° |
| 2026-05-04 19:39 | 34.21342 | -116.97765 | 21054 ft | 302 kts | 244° |
| 2026-05-04 19:39 | 34.20598 | -117.00134 | 20611 ft | 302 kts | 250° |
| 2026-05-04 19:39 | 34.19964 | -117.02547 | 20145 ft | 300 kts | 249° |
| 2026-05-04 19:40 | 34.19328 | -117.04926 | 19698 ft | 297 kts | 250° |
| 2026-05-04 19:40 | 34.18684 | -117.07307 | 19223 ft | 297 kts | 249° |
| 2026-05-04 19:40 | 34.18036 | -117.09692 | 18664 ft | 299 kts | 250° |
| 2026-05-04 19:40 | 34.17387 | -117.12075 | 18272 ft | 298 kts | 250° |
| 2026-05-04 19:41 | 34.16742 | -117.14451 | 17810 ft | 296 kts | 250° |
| 2026-05-04 19:41 | 34.16109 | -117.16795 | 17386 ft | 291 kts | 250° |
| 2026-05-04 19:41 | 34.15474 | -117.19119 | 17006 ft | 293 kts | 250° |
| 2026-05-04 19:41 | 34.14830 | -117.21452 | 16605 ft | 292 kts | 250° |
| 2026-05-04 19:42 | 34.14196 | -117.23746 | 16211 ft | 292 kts | 250° |
| 2026-05-04 19:42 | 34.13555 | -117.26071 | 15821 ft | 291 kts | 250° |
| 2026-05-04 19:42 | 34.12914 | -117.28394 | 15433 ft | 292 kts | 250° |
| 2026-05-04 19:42 | 34.12274 | -117.30716 | 15040 ft | 292 kts | 250° |
| 2026-05-04 19:43 | 34.11631 | -117.33045 | 14654 ft | 292 kts | 250° |
| 2026-05-04 19:43 | 34.10988 | -117.35374 | 14262 ft | 292 kts | 250° |
| 2026-05-04 19:43 | 34.10334 | -117.37742 | 14045 ft | 305 kts | 251° |
| 2026-05-04 19:43 | 34.09708 | -117.40153 | 13955 ft | 312 kts | 252° |
| 2026-05-04 19:44 | 34.09085 | -117.42681 | 13482 ft | 316 kts | 252° |
| 2026-05-04 19:44 | 34.08458 | -117.45242 | 12741 ft | 319 kts | 252° |
| 2026-05-04 19:44 | 34.07833 | -117.47776 | 12223 ft | 317 kts | 252° |
| 2026-05-04 19:44 | 34.07170 | -117.50271 | 12021 ft | 309 kts | 248° |
| 2026-05-04 19:45 | 34.06366 | -117.52508 | 11835 ft | 301 kts | 246° |
| 2026-05-04 19:45 | 34.05526 | -117.54816 | 11433 ft | 299 kts | 247° |
| 2026-05-04 19:45 | 34.04705 | -117.57105 | 11096 ft | 295 kts | 247° |
| 2026-05-04 19:45 | 34.03920 | -117.59295 | 10765 ft | 293 kts | 247° |
| 2026-05-04 19:46 | 34.03123 | -117.61515 | 10427 ft | 289 kts | 247° |
| 2026-05-04 19:46 | 34.02328 | -117.63721 | 10194 ft | 281 kts | 247° |
| 2026-05-04 19:46 | 34.01561 | -117.65850 | 10112 ft | 269 kts | 247° |
| 2026-05-04 19:46 | 34.00893 | -117.67873 | 10019 ft | 256 kts | 253° |
| 2026-05-04 19:47 | 34.00499 | -117.69927 | 9716 ft | 251 kts | 261° |
| 2026-05-04 19:47 | 34.00309 | -117.72074 | 9342 ft | 262 kts | 264° |
| 2026-05-04 19:47 | 34.00112 | -117.74265 | 9101 ft | 268 kts | 263° |
| 2026-05-04 19:47 | 33.99910 | -117.76363 | 8950 ft | 267 kts | 263° |
| 2026-05-04 19:48 | 33.99693 | -117.78573 | 8617 ft | 263 kts | 263° |
| 2026-05-04 19:48 | 33.99476 | -117.80762 | 8143 ft | 262 kts | 263° |
| 2026-05-04 19:48 | 33.99264 | -117.82898 | 7997 ft | 257 kts | 263° |
| 2026-05-04 19:48 | 33.99050 | -117.85074 | 7533 ft | 262 kts | 263° |
| 2026-05-04 19:49 | 33.98840 | -117.87240 | 7263 ft | 258 kts | 264° |
| 2026-05-04 19:49 | 33.98651 | -117.89390 | 7201 ft | 259 kts | 266° |
| 2026-05-04 19:49 | 33.98568 | -117.91559 | 7201 ft | 258 kts | 266° |
| 2026-05-04 19:49 | 33.98408 | -117.93710 | 7199 ft | 260 kts | 264° |
| 2026-05-04 19:50 | 33.98181 | -117.95868 | 7026 ft | 261 kts | 263° |
| 2026-05-04 19:50 | 33.97948 | -117.98059 | 6676 ft | 265 kts | 263° |
| 2026-05-04 19:50 | 33.97718 | -118.00224 | 6327 ft | 265 kts | 263° |
| 2026-05-04 19:50 | 33.97487 | -118.02410 | 5974 ft | 260 kts | 263° |
| 2026-05-04 19:51 | 33.97258 | -118.04564 | 5579 ft | 258 kts | 262° |
| 2026-05-04 19:51 | 33.97035 | -118.06674 | 5231 ft | 251 kts | 262° |
| 2026-05-04 19:51 | 33.96820 | -118.08707 | 4892 ft | 239 kts | 263° |
| 2026-05-04 19:51 | 33.96613 | -118.10674 | 4570 ft | 232 kts | 263° |
| 2026-05-04 19:52 | 33.96416 | -118.12549 | 4269 ft | 225 kts | 263° |
| 2026-05-04 19:52 | 33.96220 | -118.14408 | 3999 ft | 222 kts | 263° |
| 2026-05-04 19:52 | 33.96027 | -118.16252 | 3706 ft | 223 kts | 263° |
| 2026-05-04 19:52 | 33.95835 | -118.18085 | 3422 ft | 216 kts | 262° |
| 2026-05-04 19:53 | 33.95651 | -118.19846 | 3140 ft | 207 kts | 263° |
| 2026-05-04 19:53 | 33.95476 | -118.21517 | 2896 ft | 190 kts | 262° |
| 2026-05-04 19:53 | 33.95322 | -118.23008 | 2660 ft | 169 kts | 262° |
| 2026-05-04 19:53 | 33.95177 | -118.24378 | 2422 ft | 168 kts | 262° |
| 2026-05-04 19:54 | 33.95040 | -118.25709 | 2196 ft | 160 kts | 261° |
| 2026-05-04 19:54 | 33.94903 | -118.27014 | 1983 ft | 153 kts | 262° |
| 2026-05-04 19:54 | 33.94775 | -118.28261 | 1778 ft | 151 kts | 262° |
| 2026-05-04 19:54 | 33.94644 | -118.29505 | 1569 ft | 145 kts | 262° |
| 2026-05-04 19:55 | 33.94529 | -118.30628 | 1388 ft | 125 kts | 262° |
| 2026-05-04 19:55 | 33.94420 | -118.31670 | 1223 ft | 129 kts | 262° |
| 2026-05-04 19:55 | 33.94344 | -118.32399 | 1109 ft | 132 kts | 262° |
| 2026-05-04 19:55 | 33.94236 | -118.33469 | 932 ft | 124 kts | 260° |
| 2026-05-04 19:56 | 33.94129 | -118.34514 | 754 ft | 127 kts | 259° |
| 2026-05-04 19:56 | 33.94002 | -118.35561 | 589 ft | 129 kts | 260° |
| 2026-05-04 19:56 | 33.93894 | -118.36628 | 462 ft | 130 kts | 263° |
| 2026-05-04 19:56 | 33.93795 | -118.37685 | 252 ft | 124 kts | 260° |
| 2026-05-04 19:57 | 33.93688 | -118.38725 | 100 ft | 118 kts | 263° |
| 2026-05-04 19:57 | 33.93610 | -118.39523 | 102 ft | 76 kts | 263° |
| 2026-05-04 19:57 | 33.93558 | -118.40028 | 101 ft | 42 kts | 263° |
| 2026-05-04 19:57 | 33.93534 | -118.40327 | 102 ft | 28 kts | 270° |
| 2026-05-04 19:58 | 33.93557 | -118.40512 | 101 ft | 20 kts | 286° |
| 2026-05-04 19:58 | 33.93589 | -118.40644 | 99 ft | 13 kts | 282° |
| 2026-05-04 19:58 | 33.93596 | -118.40744 | 101 ft | 11 kts | 271° |
| 2026-05-04 19:58 | 33.93605 | -118.40836 | 101 ft | 10 kts | 290° |
| 2026-05-04 19:59 | 33.93645 | -118.40885 | 103 ft | 8 kts | 338° |
| 2026-05-04 19:59 | 33.93706 | -118.40901 | 101 ft | 11 kts | 352° |
| 2026-05-04 19:59 | 33.93763 | -118.40917 | 100 ft | 6 kts | 317° |
| 2026-05-04 19:59 | 33.93778 | -118.40973 | 99 ft | 8 kts | 271° |
| 2026-05-04 20:00 | 33.93772 | -118.41045 | 98 ft | 9 kts | 262° |
| 2026-05-04 20:00 | 33.93765 | -118.41112 | 102 ft | 7 kts | 270° |
| 2026-05-04 20:00 | 33.93785 | -118.41143 | 102 ft | 6 kts | 331° |
| 2026-05-04 20:00 | 33.93837 | -118.41157 | 100 ft | 10 kts | 354° |
| 2026-05-04 20:01 | 33.93918 | -118.41168 | 100 ft | 13 kts | 353° |
| 2026-05-04 20:01 | 33.94019 | -118.41184 | 97 ft | 16 kts | 353° |
| 2026-05-04 20:01 | 33.94101 | -118.41196 | 99 ft | 7 kts | 353° |
| 2026-05-04 20:01 | 33.94134 | -118.41200 | 100 ft | 0 kts | 354° |
| 2026-05-04 20:02 | 33.94148 | -118.41200 | 100 ft | 2 kts | 15° |
| 2026-05-04 20:02 | 33.94153 | -118.41198 | 99 ft | 0 kts | 36° |
| 2026-05-04 20:02 | 33.94163 | -118.41181 | 98 ft | 4 kts | 64° |
| 2026-05-04 20:03 | 33.94170 | -118.41153 | 99 ft | 1 kts | 77° |
| 2026-05-04 20:03 | 33.94173 | -118.41133 | 99 ft | 3 kts | 82° |
| 2026-05-04 20:03 | 33.94175 | -118.41115 | 98 ft | 2 kts | 83° |
| 2026-05-04 20:03 | 33.94176 | -118.41102 | 98 ft | 0 kts | 83° |